Wetterdaten: Woche 27.06.22 - 03.07.22 (KW26)
Datum Zeit Temp. Aussen Temp. o. S. Temp +5cm Feuchte Auss Luftdruck Regen Sonnenschein Regendauer Solar Windben Empfang
27.06.2022 00:00 18,4 C 17,4 C 14,0 C 83 % 1015,1 hPa 0,0 l/m 0,00 h 0,10 h 0 W/m 0,7 km/h (0 Bft) 99,27 %
27.06.2022 01:00 18,3 C 17,2 C 13,9 C 86 % 1015,1 hPa 0,0 l/m 0,00 h 0,03 h 0 W/m 1,3 km/h (1 Bft) 96,65 %
27.06.2022 02:00 18,1 C 17,1 C 13,9 C 88 % 1015,4 hPa 0,0 l/m 0,00 h 0,00 h 0 W/m 2,1 km/h (1 Bft) 97,65 %
27.06.2022 03:00 17,7 C 16,7 C 13,3 C 91 % 1015,4 hPa 0,0 l/m 0,00 h 0,00 h 0 W/m 5,9 km/h (2 Bft) 98,57 %
27.06.2022 04:00 17,6 C 16,8 C 13,4 C 91 % 1014,7 hPa 0,0 l/m 0,00 h 0,00 h 0 W/m 4,7 km/h (1 Bft) 96,72 %
27.06.2022 05:00 17,7 C 16,9 C 13,5 C 89 % 1014,2 hPa 0,0 l/m 0,00 h 0,00 h 0 W/m 3,0 km/h (1 Bft) 97,86 %
27.06.2022 06:00 17,6 C 16,7 C 13,3 C 90 % 1014,4 hPa 0,0 l/m 0,00 h 0,00 h 19 W/m 1,7 km/h (1 Bft) 98,29 %
27.06.2022 07:00 17,8 C 17,6 C 14,0 C 91 % 1014,0 hPa 0,0 l/m 0,03 h 0,00 h 92 W/m 3,4 km/h (1 Bft) 96,80 %
27.06.2022 08:00 18,1 C 18,0 C 14,6 C 89 % 1015,1 hPa 0,0 l/m 0,00 h 0,00 h 120 W/m 3,3 km/h (1 Bft) 96,05 %
27.06.2022 09:00 18,9 C 18,9 C 15,3 C 87 % 1015,0 hPa 0,0 l/m 0,00 h 0,00 h 175 W/m 4,3 km/h (1 Bft) 99,08 %
27.06.2022 10:00 19,4 C 19,3 C 15,8 C 85 % 1015,8 hPa 0,0 l/m 0,00 h 0,00 h 169 W/m 5,1 km/h (1 Bft) 94,86 %
27.06.2022 11:00 19,9 C 19,8 C 16,3 C 84 % 1016,2 hPa 0,0 l/m 0,00 h 0,00 h 198 W/m 4,7 km/h (1 Bft) 99,15 %
27.06.2022 12:00 20,1 C 19,9 C 16,1 C 83 % 1016,1 hPa 0,0 l/m 0,00 h 0,00 h 191 W/m 5,1 km/h (1 Bft) 97,71 %
27.06.2022 13:00 20,4 C 21,0 C 17,0 C 80 % 1016,3 hPa 0,0 l/m 0,07 h 0,00 h 317 W/m 5,3 km/h (1 Bft) 96,63 %
27.06.2022 14:00 21,4 C 22,1 C 18,1 C 72 % 1016,3 hPa 0,0 l/m 0,30 h 0,00 h 364 W/m 6,5 km/h (2 Bft) 98,64 %
27.06.2022 15:00 22,9 C 24,4 C 19,1 C 66 % 1016,5 hPa 0,0 l/m 0,83 h 0,00 h 563 W/m 12,0 km/h (2 Bft) 97,41 %
27.06.2022 16:00 19,0 C 17,4 C 13,9 C 80 % 1017,9 hPa 5,0 l/m 0,00 h 0,43 h 124 W/m 18,1 km/h (3 Bft) 98,15 %
27.06.2022 17:00 15,9 C 15,7 C 11,4 C 94 % 1018,6 hPa 0,0 l/m 0,10 h 0,03 h 152 W/m 13,4 km/h (3 Bft) 97,51 %
27.06.2022 18:00 16,4 C 16,4 C 11,7 C 92 % 1018,9 hPa 0,0 l/m 0,00 h 0,00 h 144 W/m 5,3 km/h (1 Bft) 97,05 %
27.06.2022 19:00 17,4 C 17,7 C 12,8 C 89 % 1019,4 hPa 0,0 l/m 0,73 h 0,00 h 242 W/m 7,4 km/h (2 Bft) 98,08 %
27.06.2022 20:00 17,8 C 17,2 C 12,8 C 86 % 1020,0 hPa 0,0 l/m 0,07 h 0,00 h 41 W/m 7,3 km/h (2 Bft) 97,22 %
27.06.2022 21:00 17,5 C 16,4 C 12,7 C 85 % 1020,2 hPa 0,0 l/m 0,00 h 0,00 h 12 W/m 2,6 km/h (1 Bft) 98,01 %
27.06.2022 22:00 16,3 C 15,0 C 11,6 C 88 % 1020,9 hPa 0,0 l/m 0,00 h 0,00 h 0 W/m 1,5 km/h (1 Bft) 97,08 %
27.06.2022 23:00 15,3 C 14,2 C 10,9 C 90 % 1021,1 hPa 0,0 l/m 0,00 h 0,00 h 0 W/m 1,0 km/h (0 Bft) 99,14 %
28.06.2022 00:00 14,4 C 13,0 C 9,8 C 91 % 1021,3 hPa 0,0 l/m 0,00 h 0,00 h 0 W/m 0,0 km/h (0 Bft) 95,67 %
28.06.2022 01:00 13,5 C 12,5 C 9,5 C 93 % 1021,4 hPa 0,0 l/m 0,00 h 0,00 h 0 W/m 1,2 km/h (1 Bft) 97,07 %
28.06.2022 02:00 13,1 C 12,2 C 9,5 C 94 % 1021,2 hPa 0,0 l/m 0,00 h 0,00 h 0 W/m 2,2 km/h (1 Bft) 98,86 %
28.06.2022 03:00 12,6 C 11,7 C 8,9 C 94 % 1021,4 hPa 0,0 l/m 0,00 h 0,00 h 0 W/m 0,0 km/h (0 Bft) 95,37 %
28.06.2022 04:00 12,2 C 11,2 C 8,4 C 95 % 1021,8 hPa 0,0 l/m 0,00 h 0,00 h 0 W/m 0,2 km/h (0 Bft) 96,91 %
28.06.2022 05:00 11,9 C 11,1 C 8,8 C 96 % 1022,3 hPa 0,2 l/m 0,00 h 0,00 h 8 W/m 3,1 km/h (1 Bft) 97,22 %
28.06.2022 06:00 12,1 C 11,8 C 9,0 C 96 % 1022,6 hPa 0,0 l/m 0,00 h 0,00 h 19 W/m 1,0 km/h (0 Bft) 98,71 %
28.06.2022 07:00 12,9 C 12,9 C 10,0 C 96 % 1022,7 hPa 0,0 l/m 0,30 h 0,00 h 109 W/m 5,1 km/h (1 Bft) 96,59 %
28.06.2022 08:00 15,4 C 18,6 C 13,3 C 91 % 1022,7 hPa 0,0 l/m 1,00 h 0,00 h 398 W/m 2,3 km/h (1 Bft) 96,86 %
28.06.2022 09:00 19,1 C 24,7 C 18,0 C 75 % 1022,8 hPa 0,0 l/m 1,00 h 0,00 h 575 W/m 2,0 km/h (1 Bft) 94,88 %
28.06.2022 10:00 20,4 C 23,1 C 21,7 C 69 % 1022,6 hPa 0,0 l/m 1,00 h 0,00 h 723 W/m 7,9 km/h (2 Bft) 99,08 %
28.06.2022 11:00 21,8 C 24,8 C 20,3 C 64 % 1022,1 hPa 0,0 l/m 1,00 h 0,00 h 840 W/m 10,0 km/h (2 Bft) 98,43 %
28.06.2022 12:00 23,4 C 25,3 C 26,3 C 58 % 1021,6 hPa 0,0 l/m 1,00 h 0,00 h 924 W/m 11,3 km/h (2 Bft) 97,94 %
28.06.2022 13:00 24,6 C 26,2 C 26,8 C 52 % 1020,9 hPa 0,0 l/m 1,00 h 0,00 h 965 W/m 9,7 km/h (2 Bft) 96,58 %
28.06.2022 14:00 25,5 C 28,0 C 22,0 C 50 % 1020,5 hPa 0,0 l/m 0,93 h 0,00 h 912 W/m 8,7 km/h (2 Bft) 98,58 %
28.06.2022 15:00 25,9 C 27,5 C 21,2 C 49 % 1019,9 hPa 0,0 l/m 0,70 h 0,00 h 719 W/m 9,2 km/h (2 Bft) 97,46 %
28.06.2022 16:00 26,2 C 31,4 C 22,3 C 50 % 1019,3 hPa 0,0 l/m 0,97 h 0,00 h 818 W/m 10,9 km/h (2 Bft) 97,55 %
28.06.2022 17:00 26,6 C 30,6 C 22,1 C 48 % 1018,7 hPa 0,0 l/m 0,67 h 0,00 h 500 W/m 7,4 km/h (2 Bft) 97,16 %
28.06.2022 18:00 26,5 C 30,9 C 22,0 C 47 % 1018,3 hPa 0,0 l/m 0,90 h 0,00 h 426 W/m 6,6 km/h (2 Bft) 99,30 %
28.06.2022 19:00 26,4 C 27,0 C 21,3 C 47 % 1017,8 hPa 0,0 l/m 1,00 h 0,00 h 284 W/m 6,1 km/h (2 Bft) 97,22 %
28.06.2022 20:00 24,5 C 23,0 C 18,9 C 55 % 1017,6 hPa 0,0 l/m 0,07 h 0,00 h 41 W/m 3,9 km/h (1 Bft) 96,51 %
28.06.2022 21:00 22,5 C 20,3 C 16,5 C 65 % 1017,4 hPa 0,0 l/m 0,00 h 0,00 h 13 W/m 1,4 km/h (1 Bft) 98,62 %
28.06.2022 22:00 20,6 C 18,6 C 15,0 C 71 % 1017,4 hPa 0,0 l/m 0,00 h 0,00 h 0 W/m 0,4 km/h (0 Bft) 96,58 %
28.06.2022 23:00 19,0 C 17,8 C 14,2 C 74 % 1017,3 hPa 0,0 l/m 0,00 h 0,00 h 0 W/m 2,6 km/h (1 Bft) 97,65 %
29.06.2022 00:00 18,3 C 17,1 C 13,7 C 75 % 1017,0 hPa 0,0 l/m 0,00 h 0,00 h 0 W/m 2,9 km/h (1 Bft) 98,04 %
29.06.2022 01:00 17,5 C 16,3 C 12,9 C 78 % 1016,7 hPa 0,0 l/m 0,00 h 0,00 h 0 W/m 0,2 km/h (0 Bft) 97,72 %
29.06.2022 02:00 16,7 C 15,6 C 12,2 C 80 % 1016,3 hPa 0,0 l/m 0,00 h 0,00 h 0 W/m 1,3 km/h (1 Bft) 96,57 %
29.06.2022 03:00 16,2 C 14,9 C 11,8 C 82 % 1016,1 hPa 0,0 l/m 0,00 h 0,00 h 0 W/m 0,2 km/h (0 Bft) 97,86 %
29.06.2022 04:00 15,4 C 13,8 C 10,8 C 86 % 1015,7 hPa 0,0 l/m 0,00 h 0,00 h 0 W/m 0,0 km/h (0 Bft) 99,22 %
29.06.2022 05:00 14,5 C 13,3 C 10,6 C 89 % 1015,4 hPa 0,0 l/m 0,00 h 0,00 h 7 W/m 0,0 km/h (0 Bft) 95,60 %
29.06.2022 06:00 14,4 C 13,9 C 10,8 C 91 % 1015,1 hPa 0,0 l/m 0,00 h 0,00 h 27 W/m 0,0 km/h (0 Bft) 98,31 %
29.06.2022 07:00 15,5 C 16,5 C 12,7 C 92 % 1014,9 hPa 0,0 l/m 0,07 h 0,00 h 112 W/m 0,0 km/h (0 Bft) 98,08 %
29.06.2022 08:00 19,3 C 20,9 C 16,1 C 82 % 1014,9 hPa 0,0 l/m 0,67 h 0,00 h 294 W/m 0,2 km/h (0 Bft) 95,95 %
29.06.2022 09:00 21,3 C 21,3 C 17,2 C 70 % 1014,9 hPa 0,0 l/m 0,03 h 0,00 h 204 W/m 6,0 km/h (2 Bft) 97,93 %
29.06.2022 10:00 21,7 C 21,4 C 17,4 C 66 % 1014,8 hPa 0,0 l/m 0,00 h 0,00 h 220 W/m 5,8 km/h (2 Bft) 99,50 %
29.06.2022 11:00 21,7 C 21,2 C 17,3 C 67 % 1014,9 hPa 0,0 l/m 0,00 h 0,00 h 213 W/m 6,0 km/h (2 Bft) 95,16 %
29.06.2022 12:00 22,4 C 22,8 C 18,4 C 68 % 1014,7 hPa 0,0 l/m 0,00 h 0,00 h 337 W/m 5,7 km/h (1 Bft) 98,97 %
29.06.2022 13:00 23,9 C 24,8 C 22,1 C 66 % 1014,3 hPa 0,0 l/m 0,40 h 0,00 h 527 W/m 6,1 km/h (2 Bft) 97,15 %
29.06.2022 14:00 27,1 C 30,1 C 23,4 C 54 % 1013,7 hPa 0,0 l/m 1,00 h 0,00 h 913 W/m 7,9 km/h (2 Bft) 98,43 %
29.06.2022 15:00 29,0 C 31,4 C 23,4 C 48 % 1013,2 hPa 0,0 l/m 1,00 h 0,00 h 855 W/m 7,6 km/h (2 Bft) 97,72 %
29.06.2022 16:00 29,7 C 34,3 C 24,3 C 47 % 1012,8 hPa 0,0 l/m 1,00 h 0,00 h 775 W/m 8,5 km/h (2 Bft) 97,58 %
29.06.2022 17:00 30,1 C 34,7 C 24,5 C 47 % 1012,4 hPa 0,0 l/m 1,00 h 0,00 h 607 W/m 8,9 km/h (2 Bft) 97,29 %
29.06.2022 18:00 30,1 C 34,3 C 24,5 C 46 % 1012,0 hPa 0,0 l/m 1,00 h 0,00 h 429 W/m 6,5 km/h (2 Bft) 98,01 %
29.06.2022 19:00 28,9 C 28,4 C 21,6 C 53 % 1011,7 hPa 0,0 l/m 1,00 h 0,00 h 259 W/m 4,9 km/h (1 Bft) 97,93 %
29.06.2022 20:00 27,0 C 24,2 C 18,9 C 61 % 1011,4 hPa 0,0 l/m 0,03 h 0,00 h 44 W/m 3,2 km/h (1 Bft) 98,22 %
29.06.2022 21:00 24,8 C 21,6 C 17,3 C 70 % 1011,4 hPa 0,0 l/m 0,00 h 0,00 h 12 W/m 0,0 km/h (0 Bft) 96,51 %
29.06.2022 22:00 22,7 C 20,0 C 16,2 C 74 % 1011,7 hPa 0,0 l/m 0,00 h 0,00 h 0 W/m 0,9 km/h (0 Bft) 97,22 %
29.06.2022 23:00 21,2 C 18,8 C 15,3 C 82 % 1012,0 hPa 0,0 l/m 0,00 h 0,00 h 0 W/m 0,0 km/h (0 Bft) 98,93 %
30.06.2022 00:00 19,7 C 18,0 C 14,7 C 86 % 1012,0 hPa 0,0 l/m 0,00 h 0,00 h 0 W/m 0,0 km/h (0 Bft) 96,33 %
30.06.2022 01:00 18,9 C 17,3 C 14,1 C 89 % 1011,7 hPa 0,0 l/m 0,00 h 0,00 h 0 W/m 0,0 km/h (0 Bft) 98,25 %
30.06.2022 02:00 18,0 C 16,5 C 13,5 C 90 % 1011,4 hPa 0,0 l/m 0,00 h 0,00 h 0 W/m 0,0 km/h (0 Bft) 97,08 %
30.06.2022 03:00 17,5 C 16,2 C 13,2 C 92 % 1011,2 hPa 0,0 l/m 0,00 h 0,00 h 0 W/m 0,0 km/h (0 Bft) 98,25 %
30.06.2022 04:00 17,5 C 17,0 C 13,8 C 93 % 1011,3 hPa 0,0 l/m 0,00 h 0,00 h 0 W/m 1,8 km/h (1 Bft) 96,30 %
30.06.2022 05:00 17,7 C 17,0 C 13,9 C 92 % 1011,3 hPa 0,0 l/m 0,00 h 0,00 h 9 W/m 2,1 km/h (1 Bft) 98,08 %
30.06.2022 06:00 17,5 C 16,8 C 13,7 C 92 % 1011,1 hPa 0,0 l/m 0,00 h 0,00 h 20 W/m 2,2 km/h (1 Bft) 98,97 %
30.06.2022 07:00 18,2 C 18,2 C 14,7 C 89 % 1011,0 hPa 0,0 l/m 0,27 h 0,00 h 103 W/m 5,7 km/h (1 Bft) 95,30 %
30.06.2022 08:00 20,9 C 23,4 C 18,0 C 81 % 1011,3 hPa 0,0 l/m 1,00 h 0,00 h 394 W/m 6,0 km/h (2 Bft) 99,72 %
30.06.2022 09:00 23,7 C 29,0 C 23,2 C 69 % 1011,5 hPa 0,0 l/m 1,00 h 0,00 h 564 W/m 7,7 km/h (2 Bft) 96,71 %
30.06.2022 10:00 25,1 C 27,7 C 26,3 C 64 % 1011,8 hPa 0,0 l/m 1,00 h 0,00 h 692 W/m 8,5 km/h (2 Bft) 97,22 %
30.06.2022 11:00 26,0 C 28,3 C 24,4 C 63 % 1011,6 hPa 0,0 l/m 1,00 h 0,00 h 719 W/m 8,5 km/h (2 Bft) 98,22 %
30.06.2022 12:00 26,6 C 28,0 C 27,7 C 64 % 1011,6 hPa 0,0 l/m 1,00 h 0,00 h 727 W/m 11,4 km/h (2 Bft) 97,87 %
30.06.2022 13:00 27,3 C 28,6 C 27,7 C 61 % 1011,2 hPa 0,0 l/m 1,00 h 0,00 h 761 W/m 13,3 km/h (3 Bft) 96,42 %
30.06.2022 14:00 28,9 C 31,5 C 25,5 C 55 % 1010,6 hPa 0,0 l/m 1,00 h 0,00 h 902 W/m 12,5 km/h (3 Bft) 99,05 %
30.06.2022 15:00 30,4 C 32,8 C 25,0 C 52 % 1009,6 hPa 0,0 l/m 1,00 h 0,00 h 833 W/m 9,0 km/h (2 Bft) 96,47 %
30.06.2022 16:00 31,3 C 34,8 C 26,0 C 48 % 1008,9 hPa 0,0 l/m 1,00 h 0,00 h 660 W/m 9,1 km/h (2 Bft) 98,17 %
30.06.2022 17:00 30,0 C 29,5 C 24,8 C 52 % 1007,9 hPa 0,0 l/m 0,07 h 0,00 h 145 W/m 6,1 km/h (2 Bft) 97,58 %
30.06.2022 18:00 23,9 C 21,7 C 18,5 C 74 % 1008,9 hPa 17,4 l/m 0,00 h 0,30 h 16 W/m 29,3 km/h (5 Bft) 98,34 %
30.06.2022 19:00 17,3 C 16,6 C 12,8 C 95 % 1011,0 hPa 0,6 l/m 0,10 h 0,33 h 78 W/m 25,6 km/h (4 Bft) 97,22 %
30.06.2022 20:00 16,0 C 15,3 C 11,3 C 93 % 1012,8 hPa 0,4 l/m 0,00 h 0,00 h 17 W/m 18,9 km/h (3 Bft) 96,58 %
30.06.2022 21:00 15,5 C 14,1 C 11,1 C 95 % 1013,2 hPa 1,2 l/m 0,00 h 0,00 h 11 W/m 11,2 km/h (2 Bft) 97,80 %
30.06.2022 22:00 15,2 C 14,4 C 11,0 C 96 % 1014,1 hPa 0,0 l/m 0,00 h 0,00 h 0 W/m 8,8 km/h (2 Bft) 97,36 %
30.06.2022 23:00 15,1 C 14,4 C 10,6 C 95 % 1015,0 hPa 0,0 l/m 0,00 h 0,00 h 0 W/m 8,1 km/h (2 Bft) 97,42 %
01.07.2022 00:00 15,0 C 14,3 C 10,6 C 95 % 1015,6 hPa 0,2 l/m 0,00 h 0,00 h 0 W/m 7,7 km/h (2 Bft) 96,08 %
01.07.2022 01:00 14,5 C 13,9 C 10,6 C 96 % 1015,6 hPa 0,0 l/m 0,00 h 0,00 h 0 W/m 7,1 km/h (2 Bft) 99,15 %
01.07.2022 02:00 14,3 C 13,8 C 10,6 C 95 % 1015,4 hPa 0,0 l/m 0,00 h 0,00 h 0 W/m 5,7 km/h (1 Bft) 96,79 %
01.07.2022 03:00 14,1 C 13,3 C 10,6 C 95 % 1015,9 hPa 0,0 l/m 0,00 h 0,00 h 0 W/m 6,4 km/h (2 Bft) 95,88 %
01.07.2022 04:00 13,9 C 13,3 C 10,6 C 95 % 1016,2 hPa 0,0 l/m 0,00 h 0,00 h 0 W/m 6,5 km/h (2 Bft) 97,73 %
01.07.2022 05:00 13,9 C 13,3 C 10,6 C 95 % 1016,8 hPa 0,0 l/m 0,00 h 0,00 h 6 W/m 7,5 km/h (2 Bft) 96,86 %
01.07.2022 06:00 13,8 C 13,4 C 10,6 C 95 % 1017,0 hPa 0,0 l/m 0,00 h 0,00 h 22 W/m 8,1 km/h (2 Bft) 96,62 %
01.07.2022 07:00 14,2 C 13,9 C 10,9 C 94 % 1016,9 hPa 0,0 l/m 0,00 h 0,00 h 73 W/m 7,8 km/h (2 Bft) 98,29 %
01.07.2022 08:00 14,7 C 14,5 C 11,5 C 93 % 1017,4 hPa 0,0 l/m 0,00 h 0,00 h 97 W/m 8,8 km/h (2 Bft) 97,72 %
01.07.2022 09:00 15,5 C 16,1 C 12,8 C 90 % 1017,8 hPa 0,0 l/m 0,30 h 0,00 h 247 W/m 10,2 km/h (2 Bft) 96,30 %
01.07.2022 10:00 17,5 C 19,2 C 16,6 C 82 % 1018,3 hPa 0,0 l/m 0,70 h 0,00 h 608 W/m 12,7 km/h (3 Bft) 99,72 %
01.07.2022 11:00 18,3 C 19,1 C 16,1 C 74 % 1018,7 hPa 0,0 l/m 0,60 h 0,00 h 452 W/m 11,4 km/h (2 Bft) 96,65 %
01.07.2022 12:00 19,5 C 20,6 C 20,0 C 70 % 1018,8 hPa 0,0 l/m 0,73 h 0,00 h 750 W/m 14,5 km/h (3 Bft) 98,20 %
01.07.2022 13:00 21,4 C 22,6 C 21,1 C 60 % 1018,6 hPa 0,0 l/m 0,80 h 0,00 h 797 W/m 17,8 km/h (3 Bft) 96,08 %
01.07.2022 14:00 21,7 C 22,9 C 19,0 C 59 % 1018,6 hPa 0,0 l/m 0,53 h 0,00 h 572 W/m 16,0 km/h (3 Bft) 98,50 %
01.07.2022 15:00 22,4 C 23,9 C 18,5 C 57 % 1018,7 hPa 0,0 l/m 0,73 h 0,00 h 655 W/m 15,3 km/h (3 Bft) 98,36 %
01.07.2022 16:00 22,7 C 25,9 C 18,8 C 57 % 1019,1 hPa 0,0 l/m 0,87 h 0,00 h 688 W/m 14,7 km/h (3 Bft) 96,59 %
01.07.2022 17:00 23,1 C 26,2 C 18,8 C 55 % 1019,1 hPa 0,0 l/m 0,80 h 0,00 h 554 W/m 13,9 km/h (3 Bft) 97,51 %
01.07.2022 18:00 23,2 C 27,2 C 19,1 C 53 % 1019,3 hPa 0,0 l/m 1,00 h 0,00 h 490 W/m 14,1 km/h (3 Bft) 98,79 %
01.07.2022 19:00 22,0 C 22,0 C 17,7 C 56 % 1019,6 hPa 0,0 l/m 0,73 h 0,00 h 207 W/m 11,6 km/h (2 Bft) 96,69 %
01.07.2022 20:00 21,1 C 20,1 C 16,6 C 60 % 1020,0 hPa 0,0 l/m 0,03 h 0,00 h 39 W/m 8,0 km/h (2 Bft) 97,64 %
01.07.2022 21:00 19,3 C 17,9 C 14,5 C 71 % 1020,6 hPa 0,0 l/m 0,00 h 0,00 h 12 W/m 2,0 km/h (1 Bft) 97,08 %
01.07.2022 22:00 17,7 C 15,8 C 12,8 C 80 % 1021,4 hPa 0,0 l/m 0,00 h 0,00 h 0 W/m 0,0 km/h (0 Bft) 97,65 %
01.07.2022 23:00 16,2 C 14,7 C 11,7 C 85 % 1022,0 hPa 0,0 l/m 0,00 h 0,00 h 0 W/m 0,0 km/h (0 Bft) 98,36 %
02.07.2022 00:00 15,3 C 14,0 C 10,9 C 88 % 1022,2 hPa 0,0 l/m 0,00 h 0,00 h 0 W/m 0,0 km/h (0 Bft) 98,09 %
02.07.2022 01:00 14,6 C 13,5 C 10,7 C 90 % 1022,3 hPa 0,0 l/m 0,00 h 0,00 h 0 W/m 0,2 km/h (0 Bft) 94,78 %
02.07.2022 02:00 14,3 C 13,5 C 10,6 C 91 % 1022,5 hPa 0,0 l/m 0,00 h 0,00 h 0 W/m 1,5 km/h (1 Bft) 97,94 %
02.07.2022 03:00 13,9 C 12,9 C 9,8 C 90 % 1022,3 hPa 0,0 l/m 0,00 h 0,00 h 0 W/m 0,5 km/h (0 Bft) 98,86 %
02.07.2022 04:00 13,1 C 12,0 C 9,1 C 92 % 1022,4 hPa 0,0 l/m 0,00 h 0,00 h 0 W/m 0,0 km/h (0 Bft) 97,36 %
02.07.2022 05:00 12,6 C 12,0 C 9,3 C 92 % 1022,5 hPa 0,0 l/m 0,00 h 0,00 h 8 W/m 0,0 km/h (0 Bft) 96,16 %
02.07.2022 06:00 12,9 C 12,4 C 9,7 C 93 % 1022,6 hPa 0,0 l/m 0,00 h 0,00 h 18 W/m 1,1 km/h (0 Bft) 98,78 %
02.07.2022 07:00 13,7 C 13,6 C 10,6 C 91 % 1022,7 hPa 0,0 l/m 0,27 h 0,00 h 97 W/m 6,3 km/h (2 Bft) 96,65 %
02.07.2022 08:00 16,5 C 19,1 C 13,8 C 85 % 1023,0 hPa 0,0 l/m 1,00 h 0,00 h 409 W/m 5,3 km/h (1 Bft) 98,15 %
02.07.2022 09:00 20,3 C 26,0 C 19,5 C 70 % 1023,0 hPa 0,0 l/m 1,00 h 0,00 h 584 W/m 8,9 km/h (2 Bft) 99,08 %
02.07.2022 10:00 22,1 C 25,2 C 23,6 C 61 % 1022,8 hPa 0,0 l/m 1,00 h 0,00 h 737 W/m 10,1 km/h (2 Bft) 97,01 %
02.07.2022 11:00 23,3 C 25,4 C 21,9 C 54 % 1022,5 hPa 0,0 l/m 0,83 h 0,00 h 769 W/m 12,9 km/h (3 Bft) 97,36 %
02.07.2022 12:00 24,8 C 26,7 C 27,0 C 49 % 1021,9 hPa 0,0 l/m 1,00 h 0,00 h 1019 W/m 13,6 km/h (3 Bft) 97,56 %
02.07.2022 13:00 25,8 C 27,2 C 27,1 C 47 % 1021,4 hPa 0,0 l/m 1,00 h 0,00 h 1017 W/m 14,9 km/h (3 Bft) 97,01 %
02.07.2022 14:00 26,6 C 29,0 C 23,9 C 46 % 1020,9 hPa 0,0 l/m 1,00 h 0,00 h 974 W/m 11,2 km/h (2 Bft) 98,01 %
02.07.2022 15:00 27,1 C 29,3 C 22,3 C 45 % 1020,1 hPa 0,0 l/m 1,00 h 0,00 h 896 W/m 11,8 km/h (2 Bft) 97,36 %
02.07.2022 16:00 27,6 C 31,9 C 23,0 C 44 % 1019,4 hPa 0,0 l/m 1,00 h 0,00 h 795 W/m 12,6 km/h (3 Bft) 98,43 %
02.07.2022 17:00 27,6 C 32,1 C 22,9 C 45 % 1018,8 hPa 0,0 l/m 0,93 h 0,00 h 615 W/m 9,9 km/h (2 Bft) 96,87 %
02.07.2022 18:00 28,3 C 33,4 C 23,5 C 44 % 1018,1 hPa 0,0 l/m 1,00 h 0,00 h 461 W/m 7,6 km/h (2 Bft) 96,90 %
02.07.2022 19:00 27,9 C 27,8 C 22,4 C 46 % 1017,7 hPa 0,0 l/m 0,43 h 0,00 h 154 W/m 5,0 km/h (1 Bft) 98,15 %
02.07.2022 20:00 25,5 C 24,3 C 20,4 C 53 % 1017,6 hPa 0,0 l/m 0,07 h 0,00 h 52 W/m 5,9 km/h (2 Bft) 97,92 %
02.07.2022 21:00 24,0 C 22,7 C 19,0 C 58 % 1017,6 hPa 0,0 l/m 0,30 h 0,00 h 25 W/m 6,2 km/h (2 Bft) 95,80 %
02.07.2022 22:00 22,3 C 20,8 C 17,4 C 62 % 1017,8 hPa 0,0 l/m 0,00 h 0,00 h 0 W/m 3,7 km/h (1 Bft) 97,02 %
02.07.2022 23:00 20,6 C 19,1 C 15,8 C 69 % 1017,9 hPa 0,0 l/m 0,00 h 0,00 h 0 W/m 2,1 km/h (1 Bft) 94,37 %
03.07.2022 00:00 19,4 C 18,0 C 14,7 C 74 % 1017,9 hPa 0,0 l/m 0,00 h 0,00 h 0 W/m 0,9 km/h (0 Bft) 97,16 %
03.07.2022 01:00 18,6 C 17,4 C 14,1 C 79 % 1017,7 hPa 0,0 l/m 0,00 h 0,00 h 0 W/m 0,0 km/h (0 Bft) 96,71 %
03.07.2022 02:00 18,1 C 17,0 C 13,8 C 80 % 1017,6 hPa 0,0 l/m 0,00 h 0,00 h 0 W/m 1,0 km/h (0 Bft) 94,46 %
03.07.2022 03:00 17,4 C 15,9 C 12,8 C 83 % 1017,2 hPa 0,0 l/m 0,00 h 0,00 h 0 W/m 0,0 km/h (0 Bft) 96,94 %
03.07.2022 04:00 16,6 C 15,3 C 12,4 C 86 % 1017,0 hPa 0,0 l/m 0,00 h 0,00 h 0 W/m 0,0 km/h (0 Bft) 96,85 %
03.07.2022 05:00 16,1 C 15,0 C 12,0 C 89 % 1017,1 hPa 0,0 l/m 0,00 h 0,00 h 9 W/m 0,1 km/h (0 Bft) 97,60 %
03.07.2022 06:00 16,2 C 15,7 C 12,5 C 86 % 1017,5 hPa 0,0 l/m 0,00 h 0,00 h 24 W/m 0,6 km/h (0 Bft) 96,22 %
03.07.2022 07:00 17,0 C 16,6 C 13,3 C 84 % 1017,8 hPa 0,0 l/m 0,27 h 0,00 h 96 W/m 5,7 km/h (1 Bft) 97,86 %
03.07.2022 08:00 18,7 C 21,1 C 16,2 C 77 % 1018,2 hPa 0,0 l/m 1,00 h 0,00 h 400 W/m 7,3 km/h (2 Bft) 98,08 %
03.07.2022 09:00 21,3 C 26,3 C 20,6 C 68 % 1018,3 hPa 0,0 l/m 0,93 h 0,00 h 508 W/m 7,1 km/h (2 Bft) 98,22 %
03.07.2022 10:00 22,5 C 25,7 C 24,1 C 65 % 1018,4 hPa 0,0 l/m 1,00 h 0,00 h 709 W/m 9,3 km/h (2 Bft) 97,44 %
03.07.2022 11:00 23,7 C 26,7 C 22,7 C 62 % 1018,5 hPa 0,0 l/m 1,00 h 0,00 h 823 W/m 10,3 km/h (2 Bft) 96,58 %
03.07.2022 12:00 24,8 C 26,8 C 27,8 C 58 % 1018,5 hPa 0,0 l/m 1,00 h 0,00 h 913 W/m 12,6 km/h (3 Bft) 98,17 %
03.07.2022 13:00 25,0 C 26,0 C 24,8 C 57 % 1018,3 hPa 0,0 l/m 0,60 h 0,00 h 637 W/m 12,7 km/h (3 Bft) 99,50 %
03.07.2022 14:00 25,4 C 27,5 C 22,6 C 56 % 1018,1 hPa 0,0 l/m 0,83 h 0,00 h 828 W/m 13,9 km/h (3 Bft) 94,59 %
03.07.2022 15:00 25,6 C 26,7 C 21,9 C 56 % 1017,9 hPa 0,0 l/m 0,47 h 0,00 h 514 W/m 15,6 km/h (3 Bft) 99,71 %
03.07.2022 16:00 24,6 C 25,3 C 21,1 C 57 % 1018,0 hPa 0,0 l/m 0,17 h 0,00 h 311 W/m 14,5 km/h (3 Bft) 97,30 %
03.07.2022 17:00 24,7 C 27,4 C 21,0 C 57 % 1018,1 hPa 0,0 l/m 0,70 h 0,00 h 479 W/m 16,5 km/h (3 Bft) 97,51 %
03.07.2022 18:00 24,7 C 28,6 C 21,3 C 53 % 1018,1 hPa 0,0 l/m 0,93 h 0,00 h 460 W/m 18,6 km/h (3 Bft) 97,72 %
03.07.2022 19:00 23,6 C 24,0 C 19,6 C 57 % 1018,4 hPa 0,0 l/m 1,00 h 0,00 h 285 W/m 19,2 km/h (3 Bft) 98,04 %
03.07.2022 20:00 21,4 C 20,5 C 17,1 C 64 % 1018,8 hPa 0,0 l/m 0,03 h 0,00 h 37 W/m 18,0 km/h (3 Bft) 96,94 %
03.07.2022 21:00 20,0 C 18,9 C 15,7 C 67 % 1019,1 hPa 0,0 l/m 0,00 h 0,00 h 13 W/m 12,6 km/h (3 Bft) 97,44 %
03.07.2022 22:00 18,6 C 17,3 C 14,2 C 70 % 1019,9 hPa 0,0 l/m 0,00 h 0,00 h 0 W/m 6,6 km/h (2 Bft) 97,17 %
03.07.2022 23:00 17,3 C 15,8 C 12,9 C 75 % 1020,3 hPa 0,0 l/m 0,00 h 0,00 h 0 W/m 1,0 km/h (0 Bft) 97,65 %
Min-Datum _ 28.06.22 28.06.22 28.06.22 02.07.22 30.06.22 - - - - 27.06.22 02.07.22
_ Min-Zeit 05:16 04:14 03:32 15:22 18:16 - - - - 00:00 01:06
Minimum _ 11,8 C 11,1 C 8,3 C 43 % 1006,4 hPa - - - - 0,0 km/h (0 Bft) 52,17 %
Max-Datum _ 30.06.22 30.06.22 02.07.22 28.06.22 02.07.22 30.06.22 28.06.22 27.06.22 01.07.22 30.06.22 27.06.22
_ Max-Zeit 16:18 16:46 13:52 06:46 08:30 18:38 12:08 00:48 13:58 18:28 00:00
Maximum _ 31,4 C 36,1 C 31,7 C 97 % 1023,1 hPa 17,4 l/m 0,07 h 0,03 h 1167 W/m 80,5 km/h
SO (9 Bft)
100,00 %
Durchschnitt _ 20,2 C 20,6 C 16,6 C 74 % 1017,1 hPa #25,0 l/m #59:54 h #1:14 h 387 W/m 6,6 km/h (2 Bft) 97,47 %
© 2022 W. Hausmann